Time;durP1;ratioP1;P1;durP2;ratioP2;P2;SDS_P1;SDS_P2;PMS_P1;PMS_P2;Temp;Humidity;BMP_temperature;BMP_pressure;BME280_temperature;BME280_humidity;BME280_pressure;Samples;Min_cycle;Max_cycle;Signal;HPM_P1;HPM_P2
2023/04/08 00:01:55;;;;;;;20.75;8.88;;;7.90;99.90;;;;;;5120017;28;20114;-74
2023/04/08 00:04:20;;;;;;;16.27;9.07;;;8.00;99.90;;;;;;5119571;28;20084;-74
2023/04/08 00:06:46;;;;;;;14.90;9.30;;;8.00;99.90;;;;;;5118926;28;20047;-74
2023/04/08 00:09:11;;;;;;;13.95;8.10;;;8.00;99.90;;;;;;5119877;28;20435;-74
2023/04/08 00:11:38;;;;;;;14.15;8.00;;;8.00;99.90;;;;;;5118821;28;20482;-75
2023/04/08 00:14:04;;;;;;;19.33;9.13;;;7.90;99.90;;;;;;5119207;28;20035;-75
2023/04/08 00:16:29;;;;;;;12.20;7.88;;;7.80;99.90;;;;;;5118920;28;20355;-74
2023/04/08 00:18:56;;;;;;;18.98;9.23;;;7.80;99.90;;;;;;5119625;28;20044;-74
2023/04/08 00:21:22;;;;;;;20.15;10.27;;;7.90;99.90;;;;;;5119612;28;20433;-74
2023/04/08 00:23:48;;;;;;;16.40;9.38;;;7.80;99.90;;;;;;5119233;28;20043;-75
2023/04/08 00:26:14;;;;;;;18.73;10.65;;;7.70;99.90;;;;;;5119240;28;20035;-74
2023/04/08 00:28:41;;;;;;;17.40;9.65;;;7.70;99.90;;;;;;5119185;28;20123;-74
2023/04/08 00:31:07;;;;;;;18.83;9.23;;;7.70;99.90;;;;;;5119399;28;20043;-75
2023/04/08 00:33:33;;;;;;;18.13;9.82;;;7.70;99.90;;;;;;5119312;28;20047;-74
2023/04/08 00:35:58;;;;;;;15.57;9.55;;;7.60;99.90;;;;;;5119298;28;20047;-74
2023/04/08 00:38:24;;;;;;;13.70;8.80;;;7.60;99.90;;;;;;5118902;28;20046;-74
2023/04/08 00:40:50;;;;;;;13.70;8.63;;;7.70;99.90;;;;;;5119282;28;20118;-75
2023/04/08 00:43:19;;;;;;;15.38;8.52;;;7.80;99.90;;;;;;5118683;28;20039;-74
2023/04/08 00:45:45;;;;;;;16.48;9.75;;;7.70;99.90;;;;;;5119196;28;20047;-75
2023/04/08 00:48:11;;;;;;;18.10;9.85;;;7.80;99.90;;;;;;5119061;28;20040;-74
2023/04/08 00:50:36;;;;;;;17.17;9.73;;;7.70;99.90;;;;;;5119123;27;20340;-74
2023/04/08 00:53:02;;;;;;;19.98;10.13;;;7.60;99.90;;;;;;5119003;28;20425;-74
2023/04/08 00:55:28;;;;;;;17.35;9.20;;;7.70;99.90;;;;;;5118985;28;20377;-74
2023/04/08 00:57:54;;;;;;;15.85;9.85;;;7.80;99.90;;;;;;5118594;28;20066;-75
2023/04/08 01:00:20;;;;;;;19.20;10.95;;;7.60;99.90;;;;;;5118176;28;20478;-74
2023/04/08 01:03:11;;;;;;;19.85;10.93;;;7.40;99.90;;;;;;5118462;28;20039;-75
2023/04/08 01:05:59;;;;;;;20.80;10.27;;;7.40;99.90;;;;;;5118798;27;20042;-75
2023/04/08 01:08:28;;;;;;;16.27;9.60;;;7.40;99.90;;;;;;5118715;28;20066;-75
2023/04/08 01:11:00;;;;;;;21.13;11.55;;;7.50;99.90;;;;;;5118723;28;20086;-74
2023/04/08 01:13:29;;;;;;;15.20;10.02;;;7.50;99.90;;;;;;5118546;28;20031;-75
2023/04/08 01:15:56;;;;;;;18.42;10.68;;;7.50;99.90;;;;;;5118705;28;20043;-75
2023/04/08 01:18:22;;;;;;;20.17;11.60;;;7.50;99.90;;;;;;5118297;28;20114;-75
2023/04/08 01:20:50;;;;;;;20.77;11.45;;;7.60;99.90;;;;;;5117378;28;20047;-75
2023/04/08 01:23:37;;;;;;;18.40;11.32;;;7.60;99.90;;;;;;5118512;28;20036;-75
2023/04/08 01:26:03;;;;;;;17.02;10.13;;;7.50;99.90;;;;;;5118533;28;20043;-75
2023/04/08 01:28:30;;;;;;;23.95;11.30;;;7.50;99.90;;;;;;5118272;28;20046;-74
2023/04/08 01:30:59;;;;;;;24.75;13.27;;;7.20;99.90;;;;;;5118261;28;20044;-74
2023/04/08 01:33:27;;;;;;;18.05;11.10;;;7.30;99.90;;;;;;5118235;28;20047;-75
2023/04/08 01:35:55;;;;;;;20.02;12.27;;;7.40;99.90;;;;;;5118174;28;20046;-74
2023/04/08 01:38:23;;;;;;;17.23;11.00;;;7.40;99.90;;;;;;5118116;28;20328;-74
2023/04/08 01:40:50;;;;;;;18.65;11.52;;;7.40;99.90;;;;;;5118156;28;20048;-75
2023/04/08 01:43:17;;;;;;;21.55;12.52;;;7.40;99.90;;;;;;5117368;28;20038;-74
2023/04/08 01:45:45;;;;;;;22.77;12.38;;;7.50;99.90;;;;;;5117717;28;20085;-75
2023/04/08 01:48:15;;;;;;;20.73;11.73;;;7.50;99.90;;;;;;5117960;28;20383;-74
2023/04/08 01:50:43;;;;;;;20.90;13.00;;;7.40;99.90;;;;;;5117662;28;20040;-75
2023/04/08 01:53:09;;;;;;;21.27;12.40;;;7.40;99.90;;;;;;5117924;28;20040;-75
2023/04/08 01:55:37;;;;;;;19.02;11.60;;;7.40;99.90;;;;;;5117828;28;20110;-75
2023/04/08 01:58:06;;;;;;;20.00;11.60;;;7.50;99.90;;;;;;5117530;28;20086;-75
2023/04/08 02:00:33;;;;;;;25.23;13.85;;;7.60;99.90;;;;;;5117866;28;20119;-75
2023/04/08 02:03:01;;;;;;;23.17;12.88;;;7.60;99.90;;;;;;5117739;27;20039;-75
2023/04/08 02:05:26;;;;;;;21.67;13.25;;;7.60;99.90;;;;;;5117811;28;20039;-75
2023/04/08 02:07:52;;;;;;;24.67;14.20;;;7.50;99.90;;;;;;5117716;28;20042;-75
2023/04/08 02:10:18;;;;;;;25.73;14.43;;;7.30;99.90;;;;;;5117458;28;20040;-75
2023/04/08 02:12:44;;;;;;;23.52;13.93;;;7.30;99.90;;;;;;5075037;28;20162;-75
2023/04/08 02:15:11;;;;;;;25.75;14.15;;;7.30;99.90;;;;;;5075749;28;20093;-75
2023/04/08 02:17:54;;;;;;;26.20;14.45;;;7.20;99.90;;;;;;5076766;28;20041;-75
2023/04/08 02:20:36;;;;;;;30.17;15.90;;;7.30;99.90;;;;;;5076931;28;20056;-75
2023/04/08 02:23:19;;;;;;;27.23;15.35;;;7.40;99.90;;;;;;5076921;28;20029;-75
2023/04/08 02:25:47;;;;;;;23.05;13.60;;;7.40;99.90;;;;;;5076930;28;20111;-75
2023/04/08 02:28:14;;;;;;;30.67;15.43;;;7.40;99.90;;;;;;5076860;28;20051;-75
2023/04/08 02:30:49;;;;;;;24.67;14.07;;;7.40;99.90;;;;;;5076945;28;20068;-74
2023/04/08 02:33:18;;;;;;;28.73;15.35;;;7.30;99.90;;;;;;5076495;28;20044;-75
2023/04/08 02:35:45;;;;;;;28.60;14.10;;;7.30;99.90;;;;;;5076460;28;20037;-75
2023/04/08 02:38:11;;;;;;;26.23;15.38;;;7.10;99.90;;;;;;5076695;28;20116;-75
2023/04/08 02:40:36;;;;;;;25.90;13.52;;;7.10;99.90;;;;;;5076719;28;20029;-75
2023/04/08 02:43:02;;;;;;;27.00;14.70;;;7.20;99.90;;;;;;5076013;28;20037;-74
2023/04/08 02:45:36;;;;;;;25.75;13.52;;;7.20;99.90;;;;;;5076653;28;20032;-74
2023/04/08 02:48:02;;;;;;;29.67;15.60;;;7.20;99.90;;;;;;5076476;28;20079;-74
2023/04/08 02:50:28;;;;;;;27.63;15.60;;;7.20;99.90;;;;;;5076564;28;20098;-74
2023/04/08 02:52:54;;;;;;;26.75;14.82;;;7.20;99.90;;;;;;5076601;28;20044;-75
2023/04/08 02:55:20;;;;;;;28.83;14.88;;;7.30;99.90;;;;;;5076532;28;20044;-75
2023/04/08 02:57:47;;;;;;;25.67;13.77;;;7.40;99.90;;;;;;5076185;28;20096;-75
2023/04/08 03:00:13;;;;;;;24.08;14.38;;;7.30;99.90;;;;;;5076571;28;20049;-74
2023/04/08 03:02:39;;;;;;;22.55;14.00;;;7.20;99.90;;;;;;5076222;28;20055;-75
2023/04/08 03:05:05;;;;;;;23.15;13.65;;;7.20;99.90;;;;;;5076563;28;20040;-74
2023/04/08 03:07:31;;;;;;;25.30;13.75;;;7.10;99.90;;;;;;5076488;28;20044;-75
2023/04/08 03:09:57;;;;;;;28.23;15.38;;;7.00;99.90;;;;;;5076110;28;20045;-75
2023/04/08 03:12:23;;;;;;;27.70;15.02;;;7.10;99.90;;;;;;5075902;28;20040;-75
2023/04/08 03:14:49;;;;;;;24.63;14.15;;;7.20;99.90;;;;;;5076337;28;20119;-75
2023/04/08 03:17:15;;;;;;;23.67;14.57;;;7.10;99.90;;;;;;5076281;28;20044;-75
2023/04/08 03:19:41;;;;;;;26.58;15.20;;;7.10;99.90;;;;;;5076321;28;20043;-75
2023/04/08 03:22:08;;;;;;;28.55;16.70;;;7.10;99.90;;;;;;5076390;28;20438;-75
2023/04/08 03:24:34;;;;;;;28.52;16.65;;;7.10;99.90;;;;;;5078913;28;20322;-75
2023/04/08 03:27:00;;;;;;;26.92;15.95;;;7.10;99.90;;;;;;5080032;28;20111;-75
2023/04/08 03:29:26;;;;;;;26.17;15.80;;;7.10;99.90;;;;;;5079983;28;20437;-75
2023/04/08 03:31:52;;;;;;;23.40;13.57;;;7.00;99.90;;;;;;5079865;28;20127;-75
2023/04/08 03:34:17;;;;;;;23.63;13.68;;;7.00;99.90;;;;;;5079785;28;20040;-75
2023/04/08 03:36:43;;;;;;;25.88;14.00;;;7.00;99.90;;;;;;5079691;28;20062;-75
2023/04/08 03:39:09;;;;;;;24.05;13.90;;;7.00;99.90;;;;;;5079660;28;20044;-75
2023/04/08 03:41:35;;;;;;;24.77;13.60;;;7.00;99.90;;;;;;5079624;28;20032;-75
2023/04/08 03:44:01;;;;;;;27.17;14.45;;;6.90;99.90;;;;;;5078894;28;20487;-74
2023/04/08 03:46:26;;;;;;;23.45;13.40;;;6.90;99.90;;;;;;5079549;28;20033;-74
2023/04/08 03:48:52;;;;;;;22.95;13.15;;;6.90;99.90;;;;;;5079569;28;20096;-74
2023/04/08 03:51:18;;;;;;;28.77;15.68;;;6.80;99.90;;;;;;5079600;28;20033;-75
2023/04/08 03:53:44;;;;;;;22.33;13.32;;;6.90;99.90;;;;;;5079676;28;20044;-75
2023/04/08 03:56:09;;;;;;;22.08;13.00;;;6.90;99.90;;;;;;5079472;28;20078;-75
2023/04/08 03:58:35;;;;;;;24.92;13.85;;;6.90;99.90;;;;;;5079084;28;20044;-75
2023/04/08 04:01:01;;;;;;;22.15;14.02;;;6.80;99.90;;;;;;5079365;28;20465;-75
2023/04/08 04:03:26;;;;;;;23.23;14.00;;;6.80;99.90;;;;;;5079277;28;20564;-75
2023/04/08 04:05:52;;;;;;;23.35;13.65;;;6.80;99.90;;;;;;5079219;28;20036;-75
2023/04/08 04:08:18;;;;;;;21.85;13.02;;;6.80;99.90;;;;;;5079294;28;20383;-75
2023/04/08 04:10:44;;;;;;;28.38;15.10;;;6.70;99.90;;;;;;5079203;28;20323;-75
2023/04/08 04:13:09;;;;;;;24.00;13.73;;;6.70;99.90;;;;;;5078486;28;20036;-75
2023/04/08 04:15:39;;;;;;;23.35;13.85;;;6.70;99.90;;;;;;5078895;28;20048;-75
2023/04/08 04:18:05;;;;;;;25.55;14.10;;;6.80;99.90;;;;;;5079007;28;20048;-75
2023/04/08 04:20:31;;;;;;;24.90;13.57;;;6.80;99.90;;;;;;5079059;28;20040;-75
2023/04/08 04:22:57;;;;;;;26.02;14.40;;;6.80;99.90;;;;;;5077897;28;20036;-75
2023/04/08 04:25:22;;;;;;;23.52;14.27;;;6.80;99.90;;;;;;5079330;28;20040;-75
2023/04/08 04:27:48;;;;;;;28.30;14.13;;;6.70;99.90;;;;;;5078954;28;20040;-74
2023/04/08 04:30:14;;;;;;;21.45;13.13;;;6.70;99.90;;;;;;5078957;28;20063;-74
2023/04/08 04:32:43;;;;;;;23.17;14.00;;;6.70;99.90;;;;;;5078816;28;20067;-74
2023/04/08 04:35:12;;;;;;;22.60;13.20;;;6.70;99.90;;;;;;5077833;28;20044;-74
2023/04/08 04:37:38;;;;;;;24.73;14.02;;;6.60;99.90;;;;;;5078646;28;20044;-74
2023/04/08 04:40:04;;;;;;;26.38;14.35;;;6.60;99.90;;;;;;5078317;28;20063;-74
2023/04/08 04:42:31;;;;;;;26.25;13.77;;;6.60;99.90;;;;;;5078300;28;20047;-74
2023/04/08 04:44:57;;;;;;;22.13;13.63;;;6.50;99.90;;;;;;5078620;28;20037;-74
2023/04/08 04:47:24;;;;;;;23.92;13.38;;;6.50;99.90;;;;;;5094021;28;20342;-74
2023/04/08 04:49:49;;;;;;;24.33;14.07;;;6.50;99.90;;;;;;5078207;28;20493;-74
2023/04/08 04:52:15;;;;;;;26.25;13.48;;;6.50;99.90;;;;;;5077444;28;20126;-74
2023/04/08 04:54:41;;;;;;;23.63;14.38;;;6.50;99.90;;;;;;5078434;28;20037;-74
2023/04/08 04:57:06;;;;;;;25.20;14.63;;;6.40;99.90;;;;;;5078279;28;20453;-74
2023/04/08 04:59:32;;;;;;;27.38;14.80;;;6.40;99.90;;;;;;5077962;28;20182;-74
2023/04/08 05:01:58;;;;;;;26.83;14.52;;;6.50;99.90;;;;;;5078153;28;20043;-74
2023/04/08 05:04:25;;;;;;;25.48;14.82;;;6.50;99.90;;;;;;5077188;28;20055;-74
2023/04/08 05:06:51;;;;;;;27.17;14.88;;;6.50;99.90;;;;;;5078227;28;20029;-74
2023/04/08 05:09:16;;;;;;;27.45;16.23;;;6.50;99.90;;;;;;5078131;28;20078;-74
2023/04/08 05:11:42;;;;;;;29.65;16.10;;;6.50;99.90;;;;;;5077982;28;20119;-74
2023/04/08 05:14:08;;;;;;;26.90;15.20;;;6.60;99.90;;;;;;5076603;28;20041;-74
2023/04/08 05:16:34;;;;;;;27.15;15.95;;;6.60;99.90;;;;;;5079231;28;20036;-75
2023/04/08 05:18:59;;;;;;;27.63;15.40;;;6.60;99.90;;;;;;5098088;28;20341;-74
2023/04/08 05:21:26;;;;;;;27.02;15.70;;;6.70;99.90;;;;;;5097148;28;20298;-74
2023/04/08 05:23:53;;;;;;;29.92;16.58;;;6.70;99.90;;;;;;5097676;28;20050;-74
2023/04/08 05:26:22;;;;;;;30.63;17.58;;;6.70;99.90;;;;;;5097959;28;20043;-74
2023/04/08 05:28:48;;;;;;;24.70;14.82;;;6.70;99.90;;;;;;5097901;28;20240;-74
2023/04/08 05:31:17;;;;;;;26.63;16.08;;;6.80;99.90;;;;;;5097825;28;20035;-74
2023/04/08 05:33:43;;;;;;;33.78;17.42;;;6.90;99.90;;;;;;5097845;28;20086;-74
2023/04/08 05:36:13;;;;;;;38.85;18.77;;;6.90;99.90;;;;;;5097442;28;20426;-74
2023/04/08 05:38:41;;;;;;;37.25;19.30;;;7.00;99.90;;;;;;5097676;28;20040;-74
2023/04/08 05:41:07;;;;;;;30.55;17.52;;;7.10;99.90;;;;;;5096458;28;20032;-74
2023/04/08 05:43:33;;;;;;;30.65;17.70;;;7.10;99.90;;;;;;5097237;28;20367;-74
2023/04/08 05:45:58;;;;;;;32.45;18.13;;;7.30;99.90;;;;;;5097521;28;20157;-74
2023/04/08 05:48:24;;;;;;;38.65;19.60;;;7.30;99.90;;;;;;5097549;28;20036;-74
2023/04/08 05:50:50;;;;;;;35.47;20.45;;;7.40;99.90;;;;;;5097499;28;20114;-74
2023/04/08 05:53:16;;;;;;;40.53;21.92;;;7.50;99.90;;;;;;5097540;28;20112;-74
2023/04/08 05:55:41;;;;;;;39.88;20.67;;;7.70;99.90;;;;;;5097581;28;20337;-74
2023/04/08 05:58:07;;;;;;;41.17;21.70;;;7.70;99.90;;;;;;5097006;28;20450;-74
2023/04/08 06:00:33;;;;;;;35.50;20.48;;;7.80;99.90;;;;;;5097467;28;20417;-75
2023/04/08 06:02:59;;;;;;;44.50;23.27;;;7.90;99.90;;;;;;5097316;28;20036;-74
2023/04/08 06:05:24;;;;;;;46.03;24.10;;;8.00;99.90;;;;;;5097479;28;20036;-74
2023/04/08 06:07:50;;;;;;;42.60;22.50;;;8.20;99.90;;;;;;5097401;28;20390;-74
2023/04/08 06:10:16;;;;;;;43.95;22.77;;;8.20;99.90;;;;;;5097336;28;20516;-74
2023/04/08 06:12:42;;;;;;;44.58;24.13;;;8.30;99.90;;;;;;5096443;28;20039;-75
2023/04/08 06:15:08;;;;;;;52.63;26.77;;;8.30;99.90;;;;;;5096924;28;20097;-74
2023/04/08 06:17:38;;;;;;;45.25;23.67;;;8.50;99.90;;;;;;5095790;28;20044;-74
2023/04/08 06:20:05;;;;;;;47.83;24.65;;;8.60;99.90;;;;;;5097087;28;20105;-74
2023/04/08 06:22:31;;;;;;;51.88;25.95;;;8.40;99.90;;;;;;5097071;28;20097;-74
2023/04/08 06:24:57;;;;;;;53.47;26.83;;;8.60;99.90;;;;;;5096996;28;20113;-74
2023/04/08 06:27:22;;;;;;;57.13;28.45;;;8.50;99.90;;;;;;5096731;28;20044;-74
2023/04/08 06:29:48;;;;;;;49.60;26.38;;;8.50;99.90;;;;;;5096904;28;20052;-74
2023/04/08 06:32:13;;;;;;;54.00;26.85;;;8.50;99.90;;;;;;5096077;28;20032;-74
2023/04/08 06:34:39;;;;;;;51.38;26.95;;;8.60;99.90;;;;;;5096913;28;20071;-74
2023/04/08 06:37:06;;;;;;;49.33;25.55;;;8.60;99.90;;;;;;5096911;28;20335;-74
2023/04/08 06:39:31;;;;;;;45.03;23.67;;;8.60;99.90;;;;;;5096729;28;20043;-74
2023/04/08 06:41:57;;;;;;;46.50;24.25;;;8.50;99.90;;;;;;5096916;28;20367;-74
2023/04/08 06:44:23;;;;;;;43.22;22.17;;;8.50;99.90;;;;;;5096460;28;20040;-74
2023/04/08 06:46:49;;;;;;;41.67;22.05;;;8.40;99.90;;;;;;5096805;28;20040;-74
2023/04/08 06:49:14;;;;;;;44.40;22.83;;;8.50;99.90;;;;;;5096947;28;20322;-73
2023/04/08 06:51:40;;;;;;;38.50;20.83;;;8.60;99.90;;;;;;5096421;28;20234;-74
2023/04/08 06:54:06;;;;;;;37.55;20.45;;;8.60;99.90;;;;;;5096765;28;20044;-74
2023/04/08 06:56:31;;;;;;;39.35;21.50;;;8.60;99.90;;;;;;5096487;28;20090;-74
2023/04/08 06:58:58;;;;;;;36.20;20.23;;;8.70;99.90;;;;;;5099633;28;20056;-74
2023/04/08 07:01:24;;;;;;;31.60;18.65;;;8.90;99.90;;;;;;5100834;28;20067;-74
2023/04/08 07:03:49;;;;;;;36.83;19.92;;;8.90;99.90;;;;;;5099898;28;20032;-74
2023/04/08 07:06:15;;;;;;;36.80;19.95;;;9.00;99.90;;;;;;5099617;28;20043;-74
2023/04/08 07:08:41;;;;;;;33.75;18.35;;;9.00;99.90;;;;;;5099581;28;20126;-74
2023/04/08 07:11:07;;;;;;;33.22;18.38;;;9.10;99.90;;;;;;5100633;28;20137;-74
2023/04/08 07:13:32;;;;;;;28.63;16.63;;;9.20;99.90;;;;;;5100120;28;20032;-74
2023/04/08 07:15:58;;;;;;;28.48;17.00;;;9.30;99.90;;;;;;5100491;28;20050;-74
2023/04/08 07:18:25;;;;;;;27.23;16.33;;;9.40;99.90;;;;;;5100396;28;20036;-74
2023/04/08 07:20:52;;;;;;;24.73;14.77;;;9.40;99.90;;;;;;5100446;28;20043;-74
2023/04/08 07:23:19;;;;;;;27.77;15.52;;;9.20;99.90;;;;;;5100398;28;20356;-73
2023/04/08 07:25:45;;;;;;;25.50;14.50;;;9.10;99.90;;;;;;5099912;28;20044;-74
2023/04/08 07:28:11;;;;;;;24.90;15.23;;;9.20;99.90;;;;;;5099997;28;20422;-74
2023/04/08 07:30:37;;;;;;;24.58;15.15;;;9.20;99.90;;;;;;5100312;28;20115;-74
2023/04/08 07:33:03;;;;;;;24.65;14.90;;;9.20;99.90;;;;;;5100713;28;20397;-74
2023/04/08 07:35:28;;;;;;;21.33;13.70;;;9.20;99.90;;;;;;5099807;28;20040;-73
2023/04/08 07:37:54;;;;;;;26.52;13.68;;;9.30;99.90;;;;;;5099966;28;20044;-69
2023/04/08 07:40:20;;;;;;;24.73;14.68;;;9.30;99.90;;;;;;5099604;28;20036;-68
2023/04/08 07:42:46;;;;;;;21.77;12.43;;;9.40;99.90;;;;;;5099173;28;20040;-67
2023/04/08 07:45:11;;;;;;;23.13;13.68;;;9.40;99.90;;;;;;5099896;28;20043;-68
2023/04/08 07:47:37;;;;;;;22.52;13.05;;;9.60;99.90;;;;;;5099863;28;20051;-68
2023/04/08 07:50:03;;;;;;;20.92;12.90;;;9.70;99.90;;;;;;5099814;28;20040;-68
2023/04/08 07:52:30;;;;;;;19.20;11.70;;;9.80;99.90;;;;;;5099394;28;20444;-69
2023/04/08 07:54:55;;;;;;;20.35;12.05;;;9.80;99.90;;;;;;5099775;28;20072;-69
2023/04/08 07:57:21;;;;;;;20.48;12.93;;;9.80;99.90;;;;;;5099573;28;20102;-68
2023/04/08 07:59:47;;;;;;;19.23;11.73;;;9.90;99.90;;;;;;5099153;28;20431;-68
2023/04/08 08:02:12;;;;;;;22.25;12.07;;;10.00;99.90;;;;;;5098568;28;20047;-68
2023/04/08 08:04:38;;;;;;;21.08;12.77;;;10.10;99.90;;;;;;5099554;28;20445;-68
2023/04/08 08:07:04;;;;;;;18.25;11.48;;;10.10;99.90;;;;;;5099167;28;20439;-67
2023/04/08 08:09:30;;;;;;;19.30;11.50;;;10.00;99.90;;;;;;5098073;28;20384;-69
2023/04/08 08:11:56;;;;;;;19.65;11.18;;;10.00;99.90;;;;;;5099408;28;20044;-68
2023/04/08 08:14:21;;;;;;;17.63;11.52;;;10.10;99.90;;;;;;5098877;28;20040;-68
2023/04/08 08:16:48;;;;;;;21.15;12.13;;;10.20;99.90;;;;;;5099159;28;20052;-68
2023/04/08 08:19:14;;;;;;;18.83;11.15;;;10.20;99.90;;;;;;5099261;28;20088;-69
2023/04/08 08:21:40;;;;;;;18.27;10.85;;;10.30;99.90;;;;;;5098969;28;20374;-69
2023/04/08 08:24:06;;;;;;;18.80;11.45;;;10.20;99.90;;;;;;5098239;28;20032;-69
2023/04/08 08:26:35;;;;;;;19.10;11.73;;;9.90;99.90;;;;;;5098880;28;20036;-68
2023/04/08 08:29:01;;;;;;;19.52;11.80;;;9.80;99.90;;;;;;5099346;28;20039;-69
2023/04/08 08:31:27;;;;;;;22.08;13.50;;;9.70;99.90;;;;;;5097252;28;20570;-71
2023/04/08 08:33:53;;;;;;;20.52;12.57;;;9.90;99.90;;;;;;5081048;28;20036;-69
2023/04/08 08:36:18;;;;;;;24.58;13.93;;;9.80;99.90;;;;;;5098787;28;20083;-71
2023/04/08 08:38:44;;;;;;;23.27;13.93;;;9.90;99.90;;;;;;5098311;28;20044;-70
2023/04/08 08:41:10;;;;;;;22.48;13.00;;;9.70;99.90;;;;;;5098688;28;20032;-71
2023/04/08 08:43:37;;;;;;;25.33;14.10;;;9.70;99.90;;;;;;5097696;28;20040;-73
2023/04/08 08:46:03;;;;;;;21.02;13.43;;;9.50;99.90;;;;;;5098331;28;20043;-70
2023/04/08 08:48:28;;;;;;;23.80;14.60;;;9.60;99.90;;;;;;5097121;28;20041;-71
2023/04/08 08:50:54;;;;;;;26.42;15.27;;;9.70;99.90;;;;;;5098701;28;20043;-70
2023/04/08 08:53:22;;;;;;;24.55;15.13;;;9.70;99.90;;;;;;5098261;28;20050;-73
2023/04/08 08:55:48;;;;;;;25.45;14.20;;;9.60;99.90;;;;;;5098605;28;20047;-70
2023/04/08 08:58:14;;;;;;;25.35;14.68;;;9.80;99.90;;;;;;5098144;28;20056;-70
2023/04/08 09:00:41;;;;;;;24.48;14.75;;;9.90;99.90;;;;;;5098105;28;20119;-69
2023/04/08 09:03:26;;;;;;;25.13;14.75;;;10.00;99.90;;;;;;5080248;28;20036;-67
2023/04/08 09:05:53;;;;;;;24.80;15.23;;;10.00;99.90;;;;;;5098343;28;20040;-70
2023/04/08 09:08:32;;;;;;;26.45;13.93;;;10.00;99.90;;;;;;5098264;28;20078;-71
2023/04/08 09:11:15;;;;;;;26.00;14.23;;;10.00;99.90;;;;;;5098235;28;20051;-70
2023/04/08 09:13:42;;;;;;;23.27;13.20;;;10.00;99.90;;;;;;5097813;28;20039;-70
2023/04/08 09:16:15;;;;;;;21.17;12.00;;;10.00;99.90;;;;;;5098014;28;20386;-71
2023/04/08 09:18:44;;;;;;;24.65;13.48;;;10.00;99.90;;;;;;5097987;28;20066;-70
2023/04/08 09:21:11;;;;;;;17.73;11.50;;;10.00;99.90;;;;;;5097043;28;20039;-70
2023/04/08 09:23:43;;;;;;;20.02;11.57;;;9.90;99.90;;;;;;5097988;28;20036;-70
2023/04/08 09:26:23;;;;;;;19.00;11.88;;;10.00;99.90;;;;;;5097910;28;20350;-71
2023/04/08 09:29:01;;;;;;;23.70;13.25;;;9.80;99.90;;;;;;5098193;28;20036;-70
2023/04/08 09:31:31;;;;;;;22.27;12.88;;;9.90;99.90;;;;;;5097508;28;20430;-70
2023/04/08 09:33:59;;;;;;;24.05;13.32;;;9.90;99.90;;;;;;5097508;28;20052;-70
2023/04/08 09:36:26;;;;;;;20.08;12.38;;;9.90;99.90;;;;;;5097791;28;20368;-69
2023/04/08 09:38:53;;;;;;;16.45;10.52;;;9.90;99.90;;;;;;5097661;28;20114;-77
2023/04/08 09:41:22;;;;;;;21.80;12.07;;;10.10;99.90;;;;;;5096368;28;20043;-68
2023/04/08 09:43:50;;;;;;;20.92;12.20;;;10.00;99.90;;;;;;5097232;28;20077;-68
2023/04/08 09:46:24;;;;;;;20.85;10.52;;;10.20;99.90;;;;;;5097290;28;20119;-68
2023/04/08 09:49:08;;;;;;;16.63;9.95;;;10.30;99.90;;;;;;5097531;28;20329;-71
2023/04/08 09:51:59;;;;;;;18.70;10.70;;;10.40;99.90;;;;;;5097567;28;20103;-69
2023/04/08 09:54:36;;;;;;;18.67;10.45;;;10.60;99.90;;;;;;5097100;28;20429;-69
2023/04/08 09:57:12;;;;;;;16.55;10.18;;;10.60;99.90;;;;;;5097337;28;20044;-69
2023/04/08 09:59:51;;;;;;;17.95;10.77;;;10.50;99.90;;;;;;5096960;28;20044;-69
2023/04/08 10:02:28;;;;;;;16.98;9.90;;;10.60;99.90;;;;;;5097570;28;20333;-69
2023/04/08 10:04:55;;;;;;;20.52;11.77;;;10.80;99.90;;;;;;5097351;28;20295;-69
2023/04/08 10:07:21;;;;;;;19.83;11.02;;;10.80;99.90;;;;;;5096934;28;20452;-69
2023/04/08 10:09:48;;;;;;;21.23;11.25;;;10.90;99.90;;;;;;5097163;28;20044;-69
2023/04/08 10:12:14;;;;;;;18.50;10.75;;;10.80;99.90;;;;;;5097221;28;20366;-69
2023/04/08 10:14:40;;;;;;;19.98;11.30;;;10.80;99.90;;;;;;5096713;28;20044;-69
2023/04/08 10:17:28;;;;;;;19.05;10.55;;;10.80;99.90;;;;;;5096746;28;20119;-69
2023/04/08 10:19:53;;;;;;;17.65;11.73;;;10.80;99.90;;;;;;5096789;28;20040;-69
2023/04/08 10:22:28;;;;;;;21.50;11.95;;;10.80;99.90;;;;;;5096967;28;20043;-69
2023/04/08 10:25:16;;;;;;;22.88;12.80;;;11.00;99.90;;;;;;5097052;28;20123;-69
2023/04/08 10:27:42;;;;;;;25.67;12.77;;;11.00;99.90;;;;;;5086497;28;20048;-69
2023/04/08 10:30:31;;;;;;;21.75;12.50;;;11.00;99.90;;;;;;5076388;28;20452;-69
2023/04/08 10:33:02;;;;;;;22.17;13.25;;;10.90;99.90;;;;;;5068872;28;20048;-70
2023/04/08 10:35:33;;;;;;;23.25;13.15;;;10.90;99.90;;;;;;5076310;28;20445;-70
2023/04/08 10:38:00;;;;;;;24.15;14.18;;;11.00;99.90;;;;;;5076749;28;20047;-72
2023/04/08 10:40:26;;;;;;;21.45;12.85;;;11.20;99.90;;;;;;5086810;28;20036;-70
2023/04/08 10:42:58;;;;;;;22.45;13.23;;;11.20;99.90;;;;;;5075512;28;20063;-71
2023/04/08 10:45:24;;;;;;;23.42;13.45;;;11.10;99.90;;;;;;5092891;28;20040;-72
2023/04/08 10:47:51;;;;;;;29.20;14.73;;;11.10;99.90;;;;;;5095213;28;20048;-72
2023/04/08 10:50:18;;;;;;;24.95;13.40;;;11.20;99.90;;;;;;5093419;28;20090;-71
2023/04/08 10:52:47;;;;;;;26.52;14.40;;;11.10;99.90;;;;;;5093053;28;20493;-71
2023/04/08 10:55:13;;;;;;;36.22;13.75;;;11.20;99.90;;;;;;5088805;28;20098;-71
2023/04/08 10:57:40;;;;;;;21.83;12.50;;;11.40;99.90;;;;;;5075395;28;20037;-69
2023/04/08 11:00:10;;;;;;;24.48;12.68;;;11.40;99.90;;;;;;5076143;28;20045;-71
2023/04/08 11:02:38;;;;;;;24.17;12.98;;;11.40;99.90;;;;;;5076160;28;20033;-71
2023/04/08 11:05:04;;;;;;;23.90;11.93;;;11.50;99.90;;;;;;5076377;28;20083;-68
2023/04/08 11:07:30;;;;;;;23.80;13.30;;;11.60;99.90;;;;;;5076386;28;20045;-70
2023/04/08 11:09:56;;;;;;;25.73;14.93;;;11.70;99.90;;;;;;5076416;28;20304;-72
2023/04/08 11:12:22;;;;;;;25.80;14.60;;;11.70;99.90;;;;;;5076484;28;20410;-71
2023/04/08 11:14:50;;;;;;;28.92;15.35;;;11.70;99.90;;;;;;5075987;28;20051;-71
2023/04/08 11:17:16;;;;;;;27.33;14.18;;;11.70;99.90;;;;;;5076184;28;20125;-70
2023/04/08 11:19:42;;;;;;;28.05;14.68;;;11.40;99.90;;;;;;5076270;28;20041;-71
2023/04/08 11:22:10;;;;;;;27.90;14.73;;;11.50;99.90;;;;;;5076243;28;20041;-73
2023/04/08 11:24:36;;;;;;;26.85;14.27;;;11.60;99.90;;;;;;5075841;28;20072;-69
2023/04/08 11:27:05;;;;;;;26.35;15.25;;;11.70;99.90;;;;;;5074894;28;20074;-70
2023/04/08 11:29:32;;;;;;;27.88;14.73;;;11.70;99.90;;;;;;5076183;28;20083;-70
2023/04/08 11:31:58;;;;;;;28.13;15.90;;;11.80;99.90;;;;;;5075859;28;20042;-69
2023/04/08 11:34:24;;;;;;;30.55;15.30;;;12.10;99.90;;;;;;5074820;28;20040;-69
2023/04/08 11:36:50;;;;;;;30.35;16.40;;;12.10;99.90;;;;;;5075755;28;20487;-69
2023/04/08 11:39:16;;;;;;;27.25;14.93;;;12.00;99.90;;;;;;5076045;28;20116;-70
2023/04/08 11:41:42;;;;;;;28.23;15.07;;;11.90;99.90;;;;;;5076067;28;20128;-69
2023/04/08 11:44:08;;;;;;;33.08;16.58;;;12.00;99.90;;;;;;5077295;28;20063;-69
2023/04/08 11:46:34;;;;;;;33.38;17.88;;;12.00;99.90;;;;;;5078277;28;20426;-69
2023/04/08 11:49:05;;;;;;;33.97;16.88;;;12.00;99.90;;;;;;5079531;28;20052;-69
2023/04/08 11:51:33;;;;;;;35.75;17.23;;;12.00;99.90;;;;;;5079550;28;20040;-70
2023/04/08 11:54:00;;;;;;;34.55;17.38;;;11.90;99.90;;;;;;5079493;28;20047;-70
2023/04/08 11:56:27;;;;;;;32.97;17.38;;;11.90;99.90;;;;;;5079461;28;20037;-70
2023/04/08 11:58:53;;;;;;;35.20;17.27;;;11.80;99.90;;;;;;5078809;28;20453;-70
2023/04/08 12:01:20;;;;;;;33.13;16.95;;;11.80;99.90;;;;;;5079316;28;20049;-70
2023/04/08 12:03:59;;;;;;;31.23;16.35;;;11.90;99.90;;;;;;5079630;28;20090;-71
2023/04/08 12:06:26;;;;;;;30.42;15.73;;;12.00;99.90;;;;;;5079176;28;20040;-70
2023/04/08 12:08:55;;;;;;;37.42;16.67;;;12.10;99.90;;;;;;5079245;28;20032;-72
2023/04/08 12:11:21;;;;;;;31.33;15.10;;;12.10;99.90;;;;;;5079495;28;20047;-69
2023/04/08 12:13:49;;;;;;;27.67;14.32;;;11.90;99.90;;;;;;5078468;28;20040;-69
2023/04/08 12:16:15;;;;;;;32.55;15.60;;;11.90;99.90;;;;;;5077775;28;20341;-69
2023/04/08 12:18:41;;;;;;;34.20;16.05;;;11.90;99.90;;;;;;5078994;28;20045;-71
2023/04/08 12:21:07;;;;;;;28.27;14.75;;;12.00;99.90;;;;;;5078733;28;20071;-71
2023/04/08 12:23:32;;;;;;;31.60;16.58;;;12.00;99.90;;;;;;5078937;28;20037;-70
2023/04/08 12:25:58;;;;;;;28.13;15.05;;;12.00;99.90;;;;;;5079029;28;20066;-70
2023/04/08 12:28:24;;;;;;;29.30;16.27;;;12.10;99.90;;;;;;5078981;28;20131;-70
2023/04/08 12:30:49;;;;;;;28.63;16.05;;;12.10;99.90;;;;;;5078978;28;20040;-75
2023/04/08 12:33:16;;;;;;;31.48;16.83;;;11.90;99.90;;;;;;5060944;28;20045;-70
2023/04/08 12:35:42;;;;;;;33.28;17.33;;;11.50;99.90;;;;;;5078716;28;20427;-71
2023/04/08 12:38:08;;;;;;;30.27;16.80;;;11.60;99.90;;;;;;5078573;28;20052;-71